sensor_id;sensor_type;location;lat;lon;timestamp;pressure;altitude;pressure_sealevel;temperature;humidity
21706;BME280;11014;53.076;18.208;2023-02-22T00:02:11;101347.88;;;6.48;63.46
21706;BME280;11014;53.076;18.208;2023-02-22T00:04:52;101342.72;;;6.46;63.12
21706;BME280;11014;53.076;18.208;2023-02-22T00:07:21;101339.34;;;6.38;63.19
21706;BME280;11014;53.076;18.208;2023-02-22T00:09:52;101348.69;;;6.34;63.61
21706;BME280;11014;53.076;18.208;2023-02-22T00:12:21;101355.44;;;6.30;63.55
21706;BME280;11014;53.076;18.208;2023-02-22T00:14:51;101348.63;;;6.27;63.75
21706;BME280;11014;53.076;18.208;2023-02-22T00:17:23;101354.81;;;6.28;63.53
21706;BME280;11014;53.076;18.208;2023-02-22T00:19:55;101354.97;;;6.26;63.78
21706;BME280;11014;53.076;18.208;2023-02-22T00:23:20;101358.19;;;6.22;63.43
21706;BME280;11014;53.076;18.208;2023-02-22T00:25:49;101359.56;;;6.18;63.74
21706;BME280;11014;53.076;18.208;2023-02-22T00:28:18;101356.63;;;6.13;64.19
21706;BME280;11014;53.076;18.208;2023-02-22T00:30:46;101359.03;;;6.08;64.24
21706;BME280;11014;53.076;18.208;2023-02-22T00:33:15;101361.41;;;6.03;64.32
21706;BME280;11014;53.076;18.208;2023-02-22T00:35:45;101365.06;;;6.02;64.18
21706;BME280;11014;53.076;18.208;2023-02-22T00:38:16;101372.44;;;6.00;64.39
21706;BME280;11014;53.076;18.208;2023-02-22T00:40:45;101365.28;;;6.15;64.09
21706;BME280;11014;53.076;18.208;2023-02-22T00:43:14;101370.50;;;5.93;63.64
21706;BME280;11014;53.076;18.208;2023-02-22T00:45:42;101368.78;;;5.78;64.03
21706;BME280;11014;53.076;18.208;2023-02-22T00:48:11;101368.41;;;5.66;64.27
21706;BME280;11014;53.076;18.208;2023-02-22T00:50:40;101374.00;;;5.57;64.06
21706;BME280;11014;53.076;18.208;2023-02-22T00:53:09;101369.56;;;5.49;64.15
21706;BME280;11014;53.076;18.208;2023-02-22T00:55:38;101375.59;;;5.43;64.15
21706;BME280;11014;53.076;18.208;2023-02-22T00:58:07;101384.09;;;5.38;64.40
21706;BME280;11014;53.076;18.208;2023-02-22T01:00:39;101380.78;;;5.36;64.14
21706;BME280;11014;53.076;18.208;2023-02-22T01:03:10;101387.31;;;5.34;64.23
21706;BME280;11014;53.076;18.208;2023-02-22T01:05:41;101382.34;;;5.31;64.11
21706;BME280;11014;53.076;18.208;2023-02-22T01:08:13;101380.03;;;5.28;64.46
21706;BME280;11014;53.076;18.208;2023-02-22T01:10:42;101388.91;;;5.43;64.32
21706;BME280;11014;53.076;18.208;2023-02-22T01:13:12;101382.88;;;5.26;64.20
21706;BME280;11014;53.076;18.208;2023-02-22T01:15:42;101394.03;;;5.22;64.38
21706;BME280;11014;53.076;18.208;2023-02-22T01:18:11;101403.91;;;5.21;64.27
21706;BME280;11014;53.076;18.208;2023-02-22T01:20:40;101398.09;;;5.18;64.34
21706;BME280;11014;53.076;18.208;2023-02-22T01:23:09;101404.75;;;5.14;64.46
21706;BME280;11014;53.076;18.208;2023-02-22T01:26:04;101406.59;;;5.13;64.75
21706;BME280;11014;53.076;18.208;2023-02-22T01:28:33;101408.16;;;5.08;64.35
21706;BME280;11014;53.076;18.208;2023-02-22T01:31:02;101408.84;;;5.02;64.54
21706;BME280;11014;53.076;18.208;2023-02-22T01:33:31;101411.53;;;4.94;64.46
21706;BME280;11014;53.076;18.208;2023-02-22T01:36:01;101407.25;;;4.85;64.33
21706;BME280;11014;53.076;18.208;2023-02-22T01:38:30;101410.94;;;4.75;64.48
21706;BME280;11014;53.076;18.208;2023-02-22T01:41:00;101409.34;;;4.66;64.32
21706;BME280;11014;53.076;18.208;2023-02-22T01:43:31;101419.34;;;4.56;64.82
21706;BME280;11014;53.076;18.208;2023-02-22T01:46:04;101415.91;;;4.48;64.65
21706;BME280;11014;53.076;18.208;2023-02-22T01:48:44;101416.59;;;4.42;64.77
21706;BME280;11014;53.076;18.208;2023-02-22T01:51:17;101413.63;;;4.37;64.84
21706;BME280;11014;53.076;18.208;2023-02-22T01:53:56;101413.13;;;4.33;64.87
21706;BME280;11014;53.076;18.208;2023-02-22T01:56:28;101419.94;;;4.28;65.02
21706;BME280;11014;53.076;18.208;2023-02-22T01:59:01;101416.47;;;4.19;64.97
21706;BME280;11014;53.076;18.208;2023-02-22T02:01:31;101419.31;;;4.09;65.21
21706;BME280;11014;53.076;18.208;2023-02-22T02:04:05;101422.66;;;4.03;65.23
21706;BME280;11014;53.076;18.208;2023-02-22T02:06:36;101420.66;;;3.97;65.08
21706;BME280;11014;53.076;18.208;2023-02-22T02:09:13;101423.66;;;3.94;65.18
21706;BME280;11014;53.076;18.208;2023-02-22T02:11:44;101426.16;;;3.88;65.03
21706;BME280;11014;53.076;18.208;2023-02-22T02:14:13;101420.50;;;3.83;65.12
21706;BME280;11014;53.076;18.208;2023-02-22T02:16:47;101427.31;;;3.77;64.99
21706;BME280;11014;53.076;18.208;2023-02-22T02:22:39;101436.78;;;3.64;65.02
21706;BME280;11014;53.076;18.208;2023-02-22T02:33:31;101442.25;;;3.38;65.22
21706;BME280;11014;53.076;18.208;2023-02-22T02:36:26;101449.19;;;3.39;65.36
21706;BME280;11014;53.076;18.208;2023-02-22T02:39:22;101452.34;;;3.34;65.37
21706;BME280;11014;53.076;18.208;2023-02-22T02:41:52;101451.03;;;3.30;65.24
21706;BME280;11014;53.076;18.208;2023-02-22T02:44:36;101454.69;;;3.29;65.31
21706;BME280;11014;53.076;18.208;2023-02-22T02:47:14;101456.16;;;3.24;65.42
21706;BME280;11014;53.076;18.208;2023-02-22T02:50:10;101458.28;;;3.20;65.44
21706;BME280;11014;53.076;18.208;2023-02-22T02:52:43;101460.94;;;3.12;65.46
21706;BME280;11014;53.076;18.208;2023-02-22T02:55:13;101464.91;;;3.08;65.24
21706;BME280;11014;53.076;18.208;2023-02-22T02:57:42;101470.38;;;3.07;65.52
21706;BME280;11014;53.076;18.208;2023-02-22T03:00:15;101468.88;;;3.04;65.35
21706;BME280;11014;53.076;18.208;2023-02-22T03:08:50;101471.50;;;2.96;65.21
21706;BME280;11014;53.076;18.208;2023-02-22T03:11:42;101473.63;;;2.92;65.24
21706;BME280;11014;53.076;18.208;2023-02-22T03:14:28;101478.44;;;2.89;65.62
21706;BME280;11014;53.076;18.208;2023-02-22T03:17:46;101476.94;;;2.86;65.33
21706;BME280;11014;53.076;18.208;2023-02-22T03:26:00;101487.00;;;2.75;65.60
21706;BME280;11014;53.076;18.208;2023-02-22T03:28:34;101484.16;;;2.68;65.33
21706;BME280;11014;53.076;18.208;2023-02-22T03:31:25;101495.25;;;2.64;65.56
21706;BME280;11014;53.076;18.208;2023-02-22T03:34:00;101494.88;;;2.59;65.45
21706;BME280;11014;53.076;18.208;2023-02-22T03:36:34;101494.53;;;2.54;65.45
21706;BME280;11014;53.076;18.208;2023-02-22T03:39:10;101494.16;;;2.49;65.47
21706;BME280;11014;53.076;18.208;2023-02-22T03:41:48;101495.47;;;2.45;65.45
21706;BME280;11014;53.076;18.208;2023-02-22T03:44:24;101503.88;;;2.40;65.65
21706;BME280;11014;53.076;18.208;2023-02-22T03:47:00;101500.72;;;2.36;65.72
21706;BME280;11014;53.076;18.208;2023-02-22T03:50:00;101501.69;;;2.35;65.90
21706;BME280;11014;53.076;18.208;2023-02-22T03:52:36;101502.34;;;2.29;65.77
21706;BME280;11014;53.076;18.208;2023-02-22T03:55:13;101511.56;;;2.25;65.79
21706;BME280;11014;53.076;18.208;2023-02-22T03:57:51;101510.06;;;2.23;65.57
21706;BME280;11014;53.076;18.208;2023-02-22T04:00:24;101506.03;;;2.19;65.51
21706;BME280;11014;53.076;18.208;2023-02-22T04:02:53;101519.28;;;2.19;65.73
21706;BME280;11014;53.076;18.208;2023-02-22T04:05:23;101512.78;;;2.13;65.48
21706;BME280;11014;53.076;18.208;2023-02-22T04:07:55;101508.63;;;2.11;65.71
21706;BME280;11014;53.076;18.208;2023-02-22T04:10:24;101515.06;;;2.08;65.58
21706;BME280;11014;53.076;18.208;2023-02-22T04:12:53;101506.75;;;2.03;65.59
21706;BME280;11014;53.076;18.208;2023-02-22T04:15:23;101521.31;;;1.99;65.39
21706;BME280;11014;53.076;18.208;2023-02-22T04:17:56;101516.31;;;1.96;65.51
21706;BME280;11014;53.076;18.208;2023-02-22T04:20:26;101522.75;;;1.94;65.44
21706;BME280;11014;53.076;18.208;2023-02-22T04:23:00;101521.91;;;1.93;65.60
21706;BME280;11014;53.076;18.208;2023-02-22T04:25:30;101526.53;;;1.91;65.65
21706;BME280;11014;53.076;18.208;2023-02-22T04:28:05;101521.91;;;1.93;65.50
21706;BME280;11014;53.076;18.208;2023-02-22T04:30:45;101517.97;;;1.97;65.79
21706;BME280;11014;53.076;18.208;2023-02-22T04:33:15;101526.63;;;1.99;65.47
21706;BME280;11014;53.076;18.208;2023-02-22T04:35:44;101524.63;;;2.01;65.78
21706;BME280;11014;53.076;18.208;2023-02-22T04:38:13;101534.09;;;2.04;65.83
21706;BME280;11014;53.076;18.208;2023-02-22T04:40:43;101534.63;;;2.07;65.58
21706;BME280;11014;53.076;18.208;2023-02-22T04:43:12;101542.94;;;2.12;65.64
21706;BME280;11014;53.076;18.208;2023-02-22T04:45:41;101544.16;;;2.18;65.86
21706;BME280;11014;53.076;18.208;2023-02-22T04:48:11;101539.34;;;2.21;65.63
21706;BME280;11014;53.076;18.208;2023-02-22T04:50:40;101543.69;;;2.22;65.71
21706;BME280;11014;53.076;18.208;2023-02-22T04:53:08;101544.34;;;2.24;65.83
21706;BME280;11014;53.076;18.208;2023-02-22T04:55:39;101549.34;;;2.27;65.64
21706;BME280;11014;53.076;18.208;2023-02-22T04:58:08;101547.91;;;2.33;65.65
21706;BME280;11014;53.076;18.208;2023-02-22T05:00:37;101555.25;;;2.39;65.69
21706;BME280;11014;53.076;18.208;2023-02-22T05:03:07;101553.78;;;2.45;66.19
21706;BME280;11014;53.076;18.208;2023-02-22T05:05:36;101553.84;;;2.53;66.01
21706;BME280;11014;53.076;18.208;2023-02-22T05:08:04;101551.91;;;2.63;65.81
21706;BME280;11014;53.076;18.208;2023-02-22T05:10:33;101553.94;;;2.69;65.67
21706;BME280;11014;53.076;18.208;2023-02-22T05:13:01;101550.00;;;2.73;65.56
21706;BME280;11014;53.076;18.208;2023-02-22T05:15:31;101553.03;;;2.78;65.79
21706;BME280;11014;53.076;18.208;2023-02-22T05:18:00;101553.69;;;2.80;65.59
21706;BME280;11014;53.076;18.208;2023-02-22T05:20:31;101552.00;;;2.79;65.78
21706;BME280;11014;53.076;18.208;2023-02-22T05:23:00;101554.34;;;2.82;65.75
21706;BME280;11014;53.076;18.208;2023-02-22T05:25:31;101561.03;;;2.86;65.59
21706;BME280;11014;53.076;18.208;2023-02-22T05:28:07;101565.53;;;2.93;65.94
21706;BME280;11014;53.076;18.208;2023-02-22T05:30:36;101562.09;;;3.01;65.57
21706;BME280;11014;53.076;18.208;2023-02-22T05:33:08;101564.13;;;3.07;65.47
21706;BME280;11014;53.076;18.208;2023-02-22T05:35:37;101569.78;;;3.12;65.60
21706;BME280;11014;53.076;18.208;2023-02-22T05:38:06;101565.19;;;3.22;65.59
21706;BME280;11014;53.076;18.208;2023-02-22T05:40:35;101577.47;;;3.31;65.75
21706;BME280;11014;53.076;18.208;2023-02-22T05:43:03;101574.19;;;3.37;65.48
21706;BME280;11014;53.076;18.208;2023-02-22T05:45:32;101582.81;;;3.39;65.69
21706;BME280;11014;53.076;18.208;2023-02-22T05:48:01;101588.13;;;3.39;65.79
21706;BME280;11014;53.076;18.208;2023-02-22T05:50:31;101585.16;;;3.42;65.80
21706;BME280;11014;53.076;18.208;2023-02-22T05:53:38;101590.19;;;3.53;65.42
21706;BME280;11014;53.076;18.208;2023-02-22T05:56:07;101591.69;;;3.56;65.55
21706;BME280;11014;53.076;18.208;2023-02-22T05:58:35;101602.84;;;3.59;65.71
21706;BME280;11014;53.076;18.208;2023-02-22T06:01:04;101605.50;;;3.59;65.78
21706;BME280;11014;53.076;18.208;2023-02-22T06:03:33;101607.66;;;3.64;65.70
21706;BME280;11014;53.076;18.208;2023-02-22T06:06:01;101611.47;;;3.70;65.69
21706;BME280;11014;53.076;18.208;2023-02-22T06:08:30;101612.53;;;3.77;65.71
21706;BME280;11014;53.076;18.208;2023-02-22T06:10:59;101605.56;;;3.84;65.59
21706;BME280;11014;53.076;18.208;2023-02-22T06:13:28;101603.09;;;3.90;65.74
21706;BME280;11014;53.076;18.208;2023-02-22T06:15:58;101613.88;;;3.97;65.53
21706;BME280;11014;53.076;18.208;2023-02-22T06:18:26;101622.88;;;3.96;65.51
21706;BME280;11014;53.076;18.208;2023-02-22T06:20:58;101626.50;;;3.95;65.67
21706;BME280;11014;53.076;18.208;2023-02-22T06:23:27;101620.88;;;3.98;65.62
21706;BME280;11014;53.076;18.208;2023-02-22T06:26:06;101625.53;;;4.04;65.60
21706;BME280;11014;53.076;18.208;2023-02-22T06:28:34;101626.84;;;4.08;65.77
21706;BME280;11014;53.076;18.208;2023-02-22T06:31:06;101634.00;;;4.15;66.00
21706;BME280;11014;53.076;18.208;2023-02-22T06:33:35;101632.19;;;4.24;65.63
21706;BME280;11014;53.076;18.208;2023-02-22T06:36:03;101632.53;;;4.29;65.71
21706;BME280;11014;53.076;18.208;2023-02-22T06:38:32;101632.72;;;4.36;65.88
21706;BME280;11014;53.076;18.208;2023-02-22T06:41:01;101641.84;;;4.41;65.61
21706;BME280;11014;53.076;18.208;2023-02-22T06:43:29;101638.88;;;4.44;65.75
21706;BME280;11014;53.076;18.208;2023-02-22T06:45:58;101638.88;;;4.44;65.80
21706;BME280;11014;53.076;18.208;2023-02-22T06:48:26;101645.88;;;4.45;66.27
21706;BME280;11014;53.076;18.208;2023-02-22T06:50:55;101649.00;;;4.49;66.42
21706;BME280;11014;53.076;18.208;2023-02-22T06:53:25;101653.50;;;4.56;66.33
21706;BME280;11014;53.076;18.208;2023-02-22T06:55:54;101648.84;;;4.66;66.35
21706;BME280;11014;53.076;18.208;2023-02-22T06:58:23;101649.31;;;4.70;66.31
21706;BME280;11014;53.076;18.208;2023-02-22T07:00:51;101643.53;;;4.74;66.72
21706;BME280;11014;53.076;18.208;2023-02-22T07:03:20;101648.00;;;4.82;66.54
21706;BME280;11014;53.076;18.208;2023-02-22T07:05:49;101644.03;;;4.86;66.75
21706;BME280;11014;53.076;18.208;2023-02-22T07:08:17;101644.50;;;4.90;66.79
21706;BME280;11014;53.076;18.208;2023-02-22T07:10:46;101655.13;;;4.90;66.66
21706;BME280;11014;53.076;18.208;2023-02-22T07:13:17;101664.28;;;4.95;66.63
21706;BME280;11014;53.076;18.208;2023-02-22T07:15:46;101671.09;;;4.98;66.70
21706;BME280;11014;53.076;18.208;2023-02-22T07:18:14;101666.78;;;4.97;66.88
21706;BME280;11014;53.076;18.208;2023-02-22T07:20:43;101674.44;;;5.00;67.10
21706;BME280;11014;53.076;18.208;2023-02-22T07:23:15;101669.59;;;5.03;66.99
21706;BME280;11014;53.076;18.208;2023-02-22T07:25:44;101663.94;;;5.06;67.21
21706;BME280;11014;53.076;18.208;2023-02-22T07:28:13;101665.09;;;5.12;67.33
21706;BME280;11014;53.076;18.208;2023-02-22T07:30:42;101674.25;;;5.17;67.42
21706;BME280;11014;53.076;18.208;2023-02-22T07:33:11;101671.91;;;5.22;67.39
21706;BME280;11014;53.076;18.208;2023-02-22T07:35:46;101675.72;;;5.28;67.58
21706;BME280;11014;53.076;18.208;2023-02-22T07:38:17;101681.53;;;5.31;67.49
21706;BME280;11014;53.076;18.208;2023-02-22T07:40:45;101677.03;;;5.40;67.51
21706;BME280;11014;53.076;18.208;2023-02-22T07:43:26;101673.34;;;5.49;67.65
21706;BME280;11014;53.076;18.208;2023-02-22T07:45:57;101675.97;;;5.57;67.71
21706;BME280;11014;53.076;18.208;2023-02-22T07:48:29;101677.78;;;5.65;67.54
21706;BME280;11014;53.076;18.208;2023-02-22T07:50:58;101680.41;;;5.73;67.95
21706;BME280;11014;53.076;18.208;2023-02-22T07:53:29;101687.72;;;5.79;67.97
21706;BME280;11014;53.076;18.208;2023-02-22T07:55:59;101686.13;;;6.01;67.57
21706;BME280;11014;53.076;18.208;2023-02-22T07:58:30;101698.50;;;5.93;67.32
21706;BME280;11014;53.076;18.208;2023-02-22T08:00:59;101692.81;;;5.96;67.36
21706;BME280;11014;53.076;18.208;2023-02-22T08:03:31;101695.78;;;6.02;67.82
21706;BME280;11014;53.076;18.208;2023-02-22T08:06:06;101696.75;;;6.09;67.48
21706;BME280;11014;53.076;18.208;2023-02-22T08:08:35;101695.00;;;6.24;67.72
21706;BME280;11014;53.076;18.208;2023-02-22T08:11:03;101701.06;;;6.40;67.91
21706;BME280;11014;53.076;18.208;2023-02-22T08:13:32;101698.28;;;6.56;67.79
21706;BME280;11014;53.076;18.208;2023-02-22T08:16:01;101693.34;;;6.68;67.88
21706;BME280;11014;53.076;18.208;2023-02-22T08:18:31;101704.97;;;6.75;67.45
21706;BME280;11014;53.076;18.208;2023-02-22T08:20:59;101701.78;;;6.80;67.32
21706;BME280;11014;53.076;18.208;2023-02-22T08:23:28;101706.84;;;6.89;67.51
21706;BME280;11014;53.076;18.208;2023-02-22T08:26:06;101701.81;;;6.94;67.05
21706;BME280;11014;53.076;18.208;2023-02-22T08:28:35;101704.47;;;6.94;66.06
21706;BME280;11014;53.076;18.208;2023-02-22T08:31:04;101703.84;;;6.92;65.98
21706;BME280;11014;53.076;18.208;2023-02-22T08:33:34;101705.66;;;6.92;66.29
21706;BME280;11014;53.076;18.208;2023-02-22T08:36:04;101709.88;;;6.86;65.72
21706;BME280;11014;53.076;18.208;2023-02-22T08:38:32;101703.91;;;6.84;65.44
21706;BME280;11014;53.076;18.208;2023-02-22T08:41:02;101700.13;;;6.79;65.13
21706;BME280;11014;53.076;18.208;2023-02-22T08:43:30;101698.81;;;6.75;64.46
21706;BME280;11014;53.076;18.208;2023-02-22T08:45:59;101694.66;;;6.72;64.45
21706;BME280;11014;53.076;18.208;2023-02-22T08:48:28;101697.69;;;6.69;63.90
21706;BME280;11014;53.076;18.208;2023-02-22T08:50:56;101697.03;;;6.67;63.53
21706;BME280;11014;53.076;18.208;2023-02-22T08:53:25;101700.72;;;6.66;62.97
21706;BME280;11014;53.076;18.208;2023-02-22T08:55:54;101702.38;;;6.67;62.29
21706;BME280;11014;53.076;18.208;2023-02-22T08:58:22;101691.81;;;6.74;61.85
21706;BME280;11014;53.076;18.208;2023-02-22T09:00:51;101693.56;;;6.81;61.39
21706;BME280;11014;53.076;18.208;2023-02-22T09:03:19;101699.41;;;6.85;60.51
21706;BME280;11014;53.076;18.208;2023-02-22T09:05:48;101690.84;;;6.89;59.84
21706;BME280;11014;53.076;18.208;2023-02-22T09:08:18;101702.84;;;6.93;58.77
21706;BME280;11014;53.076;18.208;2023-02-22T09:10:48;101690.75;;;6.97;58.33
21706;BME280;11014;53.076;18.208;2023-02-22T09:13:17;101697.41;;;7.01;57.33
21706;BME280;11014;53.076;18.208;2023-02-22T09:15:45;101689.69;;;7.06;57.29
21706;BME280;11014;53.076;18.208;2023-02-22T09:18:14;101700.66;;;7.11;56.72
21706;BME280;11014;53.076;18.208;2023-02-22T09:20:45;101708.66;;;7.11;56.17
21706;BME280;11014;53.076;18.208;2023-02-22T09:23:14;101699.81;;;7.11;55.50
21706;BME280;11014;53.076;18.208;2023-02-22T09:25:42;101706.19;;;7.25;55.32
21706;BME280;11014;53.076;18.208;2023-02-22T09:28:11;101708.06;;;7.39;54.94
21706;BME280;11014;53.076;18.208;2023-02-22T09:30:41;101715.53;;;7.43;53.88
21706;BME280;11014;53.076;18.208;2023-02-22T09:33:18;101711.94;;;7.51;53.73
21706;BME280;11014;53.076;18.208;2023-02-22T09:35:48;101719.22;;;7.57;53.33
21706;BME280;11014;53.076;18.208;2023-02-22T09:38:21;101718.22;;;7.58;52.24
21706;BME280;11014;53.076;18.208;2023-02-22T09:40:57;101711.75;;;7.52;51.79
21706;BME280;11014;53.076;18.208;2023-02-22T09:43:43;101723.19;;;7.61;51.96
21706;BME280;11014;53.076;18.208;2023-02-22T09:46:36;101729.19;;;7.63;51.83
21706;BME280;11014;53.076;18.208;2023-02-22T09:49:31;101724.88;;;7.62;50.91
21706;BME280;11014;53.076;18.208;2023-02-22T09:52:32;101723.19;;;7.61;50.82
21706;BME280;11014;53.076;18.208;2023-02-22T09:55:16;101726.97;;;7.52;51.06
21706;BME280;11014;53.076;18.208;2023-02-22T09:57:48;101718.66;;;7.47;50.43
21706;BME280;11014;53.076;18.208;2023-02-22T10:00:21;101719.22;;;7.42;50.19
21706;BME280;11014;53.076;18.208;2023-02-22T10:05:41;101719.22;;;7.42;50.25
21706;BME280;11014;53.076;18.208;2023-02-22T10:08:14;101730.00;;;7.49;50.20
21706;BME280;11014;53.076;18.208;2023-02-22T10:10:45;101723.19;;;7.61;49.21
21706;BME280;11014;53.076;18.208;2023-02-22T10:13:49;101730.47;;;7.82;49.74
21706;BME280;11014;53.076;18.208;2023-02-22T10:16:42;101727.41;;;7.99;49.36
21706;BME280;11014;53.076;18.208;2023-02-22T10:25:01;101728.94;;;8.23;47.44
21706;BME280;11014;53.076;18.208;2023-02-22T10:30:20;101747.94;;;8.64;47.13
21706;BME280;11014;53.076;18.208;2023-02-22T10:33:22;101737.50;;;8.90;47.43
21706;BME280;11014;53.076;18.208;2023-02-22T10:35:54;101740.31;;;9.03;46.99
21706;BME280;11014;53.076;18.208;2023-02-22T10:38:26;101744.38;;;9.20;45.93
21706;BME280;11014;53.076;18.208;2023-02-22T10:43:28;101745.84;;;9.50;45.82
21706;BME280;11014;53.076;18.208;2023-02-22T10:46:01;101748.22;;;9.67;45.03
21706;BME280;11014;53.076;18.208;2023-02-22T10:48:34;101746.44;;;9.87;46.31
21706;BME280;11014;53.076;18.208;2023-02-22T10:51:06;101738.72;;;10.11;45.99
21706;BME280;11014;53.076;18.208;2023-02-22T10:53:37;101743.59;;;10.29;44.93
21706;BME280;11014;53.076;18.208;2023-02-22T10:56:08;101741.97;;;10.41;44.93
21706;BME280;11014;53.076;18.208;2023-02-22T10:58:54;101739.53;;;10.46;43.36
21706;BME280;11014;53.076;18.208;2023-02-22T11:01:35;101738.25;;;10.42;42.12
21706;BME280;11014;53.076;18.208;2023-02-22T11:04:13;101730.34;;;10.21;43.13
21706;BME280;11014;53.076;18.208;2023-02-22T11:06:48;101733.75;;;10.08;43.09
21706;BME280;11014;53.076;18.208;2023-02-22T11:09:46;101738.47;;;10.00;42.66
21706;BME280;11014;53.076;18.208;2023-02-22T11:12:19;101737.44;;;10.01;44.07
21706;BME280;11014;53.076;18.208;2023-02-22T11:14:49;101728.19;;;10.10;43.39
21706;BME280;11014;53.076;18.208;2023-02-22T11:17:26;101719.38;;;10.16;43.54
21706;BME280;11014;53.076;18.208;2023-02-22T11:19:56;101718.94;;;10.19;43.06
21706;BME280;11014;53.076;18.208;2023-02-22T11:22:37;101715.69;;;10.24;43.19
21706;BME280;11014;53.076;18.208;2023-02-22T11:25:17;101709.91;;;10.33;42.54
21706;BME280;11014;53.076;18.208;2023-02-22T11:27:48;101710.75;;;10.27;42.54
21706;BME280;11014;53.076;18.208;2023-02-22T11:35:52;101714.69;;;9.90;43.15
21706;BME280;11014;53.076;18.208;2023-02-22T11:38:30;101722.13;;;9.95;43.87
21706;BME280;11014;53.076;18.208;2023-02-22T11:41:31;101718.47;;;10.09;43.13
21706;BME280;11014;53.076;18.208;2023-02-22T11:44:22;101721.63;;;10.19;42.88
21706;BME280;11014;53.076;18.208;2023-02-22T11:46:53;101725.59;;;10.23;43.41
21706;BME280;11014;53.076;18.208;2023-02-22T11:49:31;101715.50;;;10.32;42.87
21706;BME280;11014;53.076;18.208;2023-02-22T11:52:22;101714.91;;;10.43;42.26
21706;BME280;11014;53.076;18.208;2023-02-22T11:55:15;101713.66;;;10.39;41.96
21706;BME280;11014;53.076;18.208;2023-02-22T11:58:38;101716.38;;;10.45;42.19
21706;BME280;11014;53.076;18.208;2023-02-22T12:01:25;101716.00;;;11.27;41.61
21706;BME280;11014;53.076;18.208;2023-02-22T12:04:21;101704.31;;;12.92;38.87
21706;BME280;11014;53.076;18.208;2023-02-22T12:12:37;101709.59;;;15.10;35.41
21706;BME280;11014;53.076;18.208;2023-02-22T12:15:41;101713.63;;;15.42;35.14
21706;BME280;11014;53.076;18.208;2023-02-22T12:21:08;101714.00;;;16.94;32.97
21706;BME280;11014;53.076;18.208;2023-02-22T12:23:49;101715.84;;;17.43;32.39
21706;BME280;11014;53.076;18.208;2023-02-22T12:26:33;101715.38;;;18.06;30.81
21706;BME280;11014;53.076;18.208;2023-02-22T12:29:11;101706.63;;;18.26;30.53
21706;BME280;11014;53.076;18.208;2023-02-22T12:31:48;101716.56;;;18.37;30.24
21706;BME280;11014;53.076;18.208;2023-02-22T12:37:17;101716.72;;;18.04;30.40
21706;BME280;11014;53.076;18.208;2023-02-22T12:39:54;101713.06;;;18.42;29.96
21706;BME280;11014;53.076;18.208;2023-02-22T12:42:40;101715.97;;;18.83;27.61
21706;BME280;11014;53.076;18.208;2023-02-22T12:45:16;101722.13;;;19.01;28.40
21706;BME280;11014;53.076;18.208;2023-02-22T12:47:53;101719.00;;;19.24;27.86
21706;BME280;11014;53.076;18.208;2023-02-22T12:50:27;101715.44;;;19.50;27.88
21706;BME280;11014;53.076;18.208;2023-02-22T12:53:13;101715.63;;;19.90;27.35
21706;BME280;11014;53.076;18.208;2023-02-22T12:55:51;101718.91;;;19.92;25.26
21706;BME280;11014;53.076;18.208;2023-02-22T13:01:40;101713.94;;;19.79;26.40
21706;BME280;11014;53.076;18.208;2023-02-22T13:04:10;101725.84;;;19.63;26.87
21706;BME280;11014;53.076;18.208;2023-02-22T13:07:04;101718.34;;;19.85;26.53
21706;BME280;11014;53.076;18.208;2023-02-22T13:09:49;101722.91;;;20.27;26.63
21706;BME280;11014;53.076;18.208;2023-02-22T13:12:37;101721.88;;;20.48;26.02
21706;BME280;11014;53.076;18.208;2023-02-22T13:19:02;101725.19;;;20.70;25.54
21706;BME280;11014;53.076;18.208;2023-02-22T13:21:27;101720.97;;;19.70;25.70
21706;BME280;11014;53.076;18.208;2023-02-22T13:30:39;101708.63;;;20.09;26.39
21706;BME280;11014;53.076;18.208;2023-02-22T13:46:58;101712.56;;;18.98;27.89
21706;BME280;11014;53.076;18.208;2023-02-22T13:52:41;101725.25;;;17.19;27.67
21706;BME280;11014;53.076;18.208;2023-02-22T13:55:18;101722.94;;;16.49;28.70
21706;BME280;11014;53.076;18.208;2023-02-22T13:57:48;101725.34;;;15.94;29.49
21706;BME280;11014;53.076;18.208;2023-02-22T14:00:37;101722.94;;;15.47;29.85
21706;BME280;11014;53.076;18.208;2023-02-22T14:05:52;101721.44;;;14.45;30.76
21706;BME280;11014;53.076;18.208;2023-02-22T14:14:11;101721.19;;;14.88;30.56
21706;BME280;11014;53.076;18.208;2023-02-22T14:17:43;101722.09;;;15.69;30.29
21706;BME280;11014;53.076;18.208;2023-02-22T14:20:18;101728.19;;;16.68;29.24
21706;BME280;11014;53.076;18.208;2023-02-22T14:22:49;101725.66;;;16.94;27.83
21706;BME280;11014;53.076;18.208;2023-02-22T14:25:38;101725.56;;;16.73;27.91
21706;BME280;11014;53.076;18.208;2023-02-22T14:28:58;101723.25;;;16.81;28.06
21706;BME280;11014;53.076;18.208;2023-02-22T14:31:33;101724.25;;;16.92;27.77
21706;BME280;11014;53.076;18.208;2023-02-22T14:34:13;101730.38;;;16.99;27.77
21706;BME280;11014;53.076;18.208;2023-02-22T14:36:50;101725.94;;;17.26;28.08
21706;BME280;11014;53.076;18.208;2023-02-22T14:39:21;101728.22;;;17.34;27.94
21706;BME280;11014;53.076;18.208;2023-02-22T14:42:01;101723.28;;;17.14;28.23
21706;BME280;11014;53.076;18.208;2023-02-22T14:50:05;101715.91;;;15.97;29.40
21706;BME280;11014;53.076;18.208;2023-02-22T14:52:37;101722.09;;;15.58;29.23
21706;BME280;11014;53.076;18.208;2023-02-22T14:55:19;101730.31;;;15.39;29.52
21706;BME280;11014;53.076;18.208;2023-02-22T14:57:59;101717.78;;;14.92;30.00
21706;BME280;11014;53.076;18.208;2023-02-22T15:00:41;101723.91;;;14.46;30.71
21706;BME280;11014;53.076;18.208;2023-02-22T15:03:31;101728.81;;;14.19;31.06
21706;BME280;11014;53.076;18.208;2023-02-22T15:06:05;101734.53;;;13.93;31.10